Timeline UpdatesTrip UpdatesNews PostsPvt PostsTravel TipsAdmin PostsConv PostsFollowed PostsChat RequestsBlog PostsPNR Posts

Disclaimer
Search
 
 
Sat Apr 19, 2014 09:52:35 ISTHomeTrainsΣChainsAtlasPNRForumGalleryNewsFAQTripsMembersLoginFeedback
No Recent News for this Train
Other Trains in the News **new
Latest...
.
Fri Feb 21, 2014 (02:20PM)
⇐ Return Journey: Train# 13008

13007/Udyan Abha Toofan Express

Feb 21 2014 (2:33PM)
Change Departure Station:
Change Arrival Station:
Post a Train Travel TipPost a Train Travel Tip **new
Post a Comment/Question/Picture/VideoPost a Comment/Question/Picture/Video
Inaugural Run
Wed Jan 01, 1930
Pantry/Catering
✕ NO Pantry Car
✕ NO Catering
RSA - Rake Sharing
Rake/Coach Composition
LOCO-SLR-GEN-GEN-B1-S5-S4-S3-S2-S1-GEN-GEN-SLR-HCPV-HCPV.
Loco
Loco Reversal @ Agra Cant (AGC) hwh - ndls wap4 (...
Read more...
hwh ) ndls - sgnr wdm3a ( tkd )
News    PNR    Forum    Time-Table    Availability    Fare Chart    Map    Arr/Dep History    Trips    Gallery    ΣChains    X/O    Timeline    
Travel Time: 32h 5m    58 halts    Distance: 1353 km    Avg Speed: 42 km/hr
Type: Mail/Express
Zone: ER/Eastern
Departs @ 22:55 (Avg 1h 43m late)
Platform# ???
SMTWTFS
Raghunathpur/RPR 
Arrives @ 07:00 +2 nights (Avg 3h 55m late)
Platform# 3
SMTWTFS
Shri Ganganagar/SGNR 

58 halts. 213 intermediate Stations between Raghunathpur and Shri Ganganagar

Show ALL intermediate Stations  Show Old Time-Table

#CodeStation NameX/OArrivesAvgDepartsAvgHaltPFDay#KmSpeedElevZoneAddress
1HWHKolkata Howrah Junction (23)  -09:35+22111-629.44210mERHowrah 711101, West Bengal
2BDCBandel Junction (7)X  10:32+2510:37+255m--1-589.87014mERdist - HOOGHLY, West Bengal
3BWNBarddhaman Junction (8)X  11:35+3011:40+305m--1-522.58234mERDist - Barddhaman, West Bengal
4PANPanagarh (4)  12:15+3612:16+371m--1-474.65570mERKaksa, West Bengal
5DGRDurgapur (5)X  12:33+3312:35+342m31-459.07971mERDurgapur, West Bengal
6UDLAndal Junction (6)X  12:48+3812:50+382m--1-441.96286mERAndal, West Bengal
7RNGRaniGanj (4)X  12:57+4012:58+421m--1-434.63492mERRaniganj, West Bengal
8ASNAsansol Junction (7)X  13:30+3013:35+355m41-416.540113mERDist - bardhaman, West Bengal
9STNSitarampur Junction (5)  13:48+3613:50+372m--1-407.857139mERG T Rd Before Asansol, West Bengal
10CRJChittaranjan (3)X  14:07+3814:08+391m31-391.566182mERMihijam, Jharkhand
11JMTJamtara (2)X  14:21+3814:22+401m11-377.163201mERJamtara, Jharkhand
12VDSVidyasagar (2)  14:39+4214:40+431m--1-359.266250mERJamtara, Jharkhand
13MDPMadhupur Junction (4)  15:02+4415:12+4210m21-335.167254mER06432-224478, Jharkhand
14JSMEJasidih Junction (5)  15:38+4615:43+455m--1-306.080271mERJasidih, Jharkhand
15STLSimultala (2)X  16:02+4316:03+441m--1-280.630247mERSimultala, Bihar
16JAJJhajha (4)  16:40+3716:45+395m31-261.962143mECRJhajha, Bihar
17GHRGidhaur (2)X  16:56+4316:57+441m--1-250.573106mECRState Highway 18, Bihar
18JMUJamui (3)X  17:09+4717:10+491m--1-235.99481mECRState Highway 72, Bihar
19MNPMananpur (2)  17:23+5017:24+531m--1-215.51757mECRState Highway 18, Bihar
20BSQPBansipur  17:33+5317:34+551m--1-213.02653mECRKiul, Bihar
21KIULKiul Junction (5)X  17:44+5317:48+524m31-208.61253mECRDist. Lakhisarai, Bihar
22LKRLuckeesarai Junction (2)X  17:55+5117:56+521m--1-207.23852mECRLakhisarai, Bihar
23DMRXDumri Halt (1)  18:13+5118:14+511m11-196.45149mECRNational Highway 80, Bihar
24BRYABarhiya  18:19+5018:20+511m--1-192.15647mECRBarahiya, Bihar
25HTZHathidah Junction (2)X  18:30+5218:31+531m21-182.85650mECRMusahari, Bihar
26MKAMokama Junction (3)X  18:40+5518:44+564m--1-174.47248mECRPatna, Bihar
27MORMorX  18:50+5818:51+581m--1-167.25546mECRMor, Bihar
28PHKPunarakh  19:00+5719:01+581m--1-158.96251mECRPunarakh, Bihar
29BARHBarh (3)X  19:11+5819:12+1:011m--1-148.56949mECRBarh, Bihar
30ATLAthmal Gola (2)XO  19:20+1:0019:21+1:001m--1-139.32252mECRPatna, Bihar
31BKPBakhtiyarpur Junction (5)X  19:46+4719:48+482m--1-130.27951mECRPatna, Bihar
32KOOKhusropur (2)  19:59+5020:00+591m--1-115.75652mECRPatna, Bihar
33FUTFatwa (6)X  20:09+1:0120:10+1:041m--1-107.27353mECRPatna, Bihar
34PNCPatna Saheb (3)X  20:20+1:0820:21+1:111m--1-95.02659mECRPatna, Bihar
35GZHGulzarbagh (3)X  20:28+1:1020:29+1:151m--1-92.02055mECRPatna, Bihar
36PNBEPatna Junction (10)X  20:50+1:1021:00+1:1610m--1-85.13857mECRPatna 800001, Bihar
37DNRDanapur (5)XO  21:15+1:2321:25+1:2410m--1-75.75658mECRKhagaul, Bihar
38SDESadisopur (2)  21:39+1:3221:40+1:331m--1-62.65164mECRSadisopur, Bihar
39BTABihta (2)X  21:45+1:3221:46+1:351m--1-58.43962mECRBihta, Bihar
40KUAKulharia (2)  22:05+1:3122:06+1:331m--1-46.15461mECRChandi Sahar Rd, Bihar
41ARAAra Junction (3)  22:17+1:3322:22+1:345m--1-36.29263mECRarrah( 06182-233411), Bihar
42BEABihiya  22:36+1:3822:37+1:401m--1-14.85167mECRBehea, Bihar
43BYNBanahi  22:44+1:3922:45+1:401m--1-8.85967mECRBanahi, Bihar
44RPR»Raghunathpur»  22:54+1:3822:55+1:431m--10.07469mECRRaghunathpur, Bihar
45DUREDumraon (3)  23:08+1:4523:09+1:471m--116.06170mECRDumraon, Bihar
46BXRBuxar (3)X  23:25+1:4823:30+1:515m--132.38067mECRBuxar, Bihar
47DLNDildarnagar Junction (2)  23:57+1:5223:59+1:532m--168.55872mECRDildarnagar, Uttar Pradesh
48ZNAZamaniaXO  00:13+1:4900:14+1:511m--282.02077mECRGhazipur, Uttar Pradesh
49MGSMughal Sarai Junction (8)XO  02:25+4602:40+4915m--2126.25583mECRMughalsarai 232101, Uttar Pradesh
50CARChunar Junction (5)X  03:15+1:1203:16+1:171m22158.16185mNCRChunar Junction, Uttar Pradesh
51MZPMirzapur (3)O  03:47+1:3303:48+1:351m--2189.44988mNCRMirzapur, Uttar Pradesh
52BDLVindhyachal (3)  03:57+1:4303:58+1:451m--2196.77488mNCRMirzapur, Uttar Pradesh
53ALDAllahabad Junction (10)X  05:05+3:0205:15+3:0410m22278.977100mNCRAllahabad 211003, Uttar Pradesh
54BREBharwariX  05:44+3:2505:45+3:281m--2316.075108mNCRBharwari, Uttar Pradesh
55SROSirathu (2)X  06:01+3:3106:02+3:341m12336.171109mNCRSirathu, Uttar Pradesh
56KGAKhaga (3)  06:23+3:4106:24+3:451m--2361.052114mNCRFatehpur, Uttar Pradesh
57FTPFatehpur (3)  07:04+3:3807:05+3:471m--2395.758120mNCRFatehpur, Uttar Pradesh
58CNBKanpur Central (10)  08:25+4:0308:40+4:0515m22473.336128mNCRKanpur, Uttar Pradesh
59PNKPanki (3)  08:59+4:1209:00+4:131m--2484.886129mNCRKANPUR-208 020, Uttar Pradesh
60RURARura (4)  09:23+4:1509:24+4:171m--2517.671137mNCRJhinjhak, Uttar Pradesh
61JJKJhinjhak (3)  09:40+4:1809:41+4:201m32536.674140mNCRAuraiya, Uttar Pradesh
62PHDPhaphund (4)X  09:57+4:2909:58+4:311m--2556.567146mNCRdist. Auraiya, Uttar Pradesh
63ULDAchalda (3)X  10:13+4:3210:14+4:331m--2573.273147mNCRDist. Auraiya(05688-1072), Uttar Pradesh
64BNTBharthana (3)X  10:30+4:3410:31+4:371m--2592.852147mNCRBharthana, Uttar Pradesh
65ETWEtawah (5)  10:54+4:3410:55+4:401m22612.662154mNCRDistt. Etawah, Uttar Pradesh
66SKBShikohabad Junction (4)X  11:49+4:5511:50+4:521m32668.038166mNCRDistrict Firozabad, Uttar Pradesh
67FZDFirozabad (4)  12:21+4:5112:22+4:561m32687.923164mNCRFirozabad, Uttar Pradesh
68TDLTundla Junction (4)  13:05+4:4513:15+4:4410m22704.521167mNCRDistt.Firozabad, Uttar Pradesh
69AFAgra Fort (3)  14:20+4:3914:25+4:505m22727.414170mNCRRakabganj, Uttar Pradesh
70IDHIdgah Agra Junction (3)  14:34+4:5114:35+5:041m--2729.55168mNCRAgra, Uttar Pradesh
71AGCAgra Cantt. (6)XO  15:00+4:5015:20+5:1020m32731.713174mNCRAgra, Uttar Pradesh
72RKMRaja Ki Mandi (4)  15:38+5:0615:39+5:071m12735.765170mNCRAgra, Uttar Pradesh
73MTJMathura Junction (10)  16:25+5:1116:33+5:098m22785.472179mNCRMathura, Uttar Pradesh
74CHJChata (4)X  16:59+5:1017:00+5:111m--2816.651185mNCRChhata, Uttar Pradesh
75KSVKosi Kalan (3)X  17:12+5:1017:13+5:111m12826.855189mNCRKosi Kalan, Uttar Pradesh
76PWLPalwal (8)X  17:59+4:5918:00+5:041m--2869.356200mNRPalwal, Haryana
77ASTAsaoti (5)  18:12+5:0418:13+5:051m32880.659203mNRAsaoti, Haryana
78BVHBallabgarh (5)  18:23+5:0718:24+5:081m--2890.544203mNRFaridabad, Haryana
79FDBFaridabad (4)  18:35+5:0718:36+5:081m22898.648206mNRFaridabad, Haryana
80TKDTuglakabad (4)X  18:50+5:0818:51+5:021m--2909.733213mNRNear Tughlakabad Metro Station, Delhi NCT
81OKAOkhla (4)X  19:02+5:0819:03+5:021m--2915.718221mNRIshwar Nagar Mathura Road, Delhi NCT
82NZMDelhi Hazrat Nizamuddin (7)X  19:15+5:0519:17+5:052m32919.348209mNRNizamuddin East/Sarai KaleKhan Bus Terminal, Delhi NCT
83TKJTilak Bridge (4)X  19:23+5:0219:24+5:021m--2924.19214mNRNew Delhi, Delhi NCT
84NDLSNew Delhi (16)X  19:40+4:5720:10+4:5830m22926.614215mNRAjmeri Gate/Paharganj, Delhi NCT
85DKZDelhi KishanGanj (2)  20:27+5:0220:28+5:031m--2930.432220mNRSarai Rohilla, Delhi NCT
86SSBShakur BastiX  20:41+5:0420:42+5:051m--2937.450216mNRPitampura, Delhi NCT
87BGZBahadurgarh  21:06+5:0621:07+5:071m--2957.372220mNRBahadurgarh, Haryana
88SPZSamplaX  21:22+5:0821:23+5:091m--2975.350222mNRSampla, Haryana
89ROKRohtak Junction (3)  21:50+5:0421:55+5:025m--2997.667220mNRRohtak, Haryana
90JNAJulana  22:23+5:0022:24+5:011m--21029.050226mNRJulana, Haryana
91JINDJind Junction (3)  22:55+4:5423:00+4:545m--21054.770222mNR126102., Haryana
92UCAUchana  23:16+4:5523:17+4:561m--21073.465225mNRDistrict Jind, Haryana
93NRWNarwana Junction (4)  23:31+4:5823:32+4:591m--21088.673235mNRWay to Narwana, Haryana
94TUNTohana (2)  23:53+4:5923:54+5:001m--21114.135232mNRTohana, Haryana
95JHLJakhal Junction  00:15+4:5000:25+4:4610m--31126.343225mNRJakhal, Haryana
96BLZBudhladaX  01:06+4:4301:07+4:371m--31155.948223mNRBudhlada, Punjab
97MSZMansa  01:27+4:3901:28+4:411m--31172.049222mNRMansa, Punjab
98MAURMaur  01:51+4:4001:52+4:411m--31190.726220mNRMaur Mandi, Punjab
99BTIBathinda Junction (6)XO  03:15+4:1104:05+3:5950m231226.273208mNRBathinda, Punjab
100GDBGiddarbaha  04:28+4:0604:29+4:141m--31254.157200mNRGiddarbaha, Punjab
101MOTMalout (1)  04:46+4:1404:47+4:171m131270.244194mNRMalaut, Punjab
102ABSAbohar  05:27+4:0805:28+4:111m--31299.835186mNRAbohar, Punjab
103SGNR•Shri Ganganagar•  07:00+3:55-331352.8-178mNWRSri Ganganagar, Rajasthan
Scroll to Top
Scroll to Bottom